Time;durP1;ratioP1;P1;durP2;ratioP2;P2;SDS_P1;SDS_P2;PMS_P1;PMS_P2;Temp;Humidity;BMP_temperature;BMP_pressure;BME280_temperature;BME280_humidity;BME280_pressure;Samples;Min_cycle;Max_cycle;Signal;HPM_P1;HPM_P2
2022/07/20 00:02:21;;;;;;;0.00;0.00;;;22.30;95.40;;;;;;5003411;28;20277;-80
2022/07/20 00:04:51;;;;;;;0.00;0.00;;;22.10;96.00;;;;;;5037005;28;20187;-81
2022/07/20 00:07:17;;;;;;;0.00;0.00;;;22.10;95.80;;;;;;5010975;28;20450;-80
2022/07/20 00:12:27;;;;;;;0.00;0.00;;;22.10;96.20;;;;;;5022267;28;20490;-81
2022/07/20 00:14:52;;;;;;;0.00;0.00;;;22.10;96.50;;;;;;4997268;28;20436;-80
2022/07/20 00:17:18;;;;;;;0.00;0.00;;;22.10;96.70;;;;;;5024493;28;20196;-80
2022/07/20 00:19:43;;;;;;;0.00;0.00;;;22.10;96.60;;;;;;5027951;28;20196;-80
2022/07/20 00:22:09;;;;;;;0.00;0.00;;;22.00;97.20;;;;;;5027272;28;20195;-80
2022/07/20 00:24:34;;;;;;;0.00;0.00;;;22.10;97.00;;;;;;5024114;28;20228;-81
2022/07/20 00:27:00;;;;;;;0.00;0.00;;;22.00;97.20;;;;;;5024600;28;20198;-80
2022/07/20 00:29:25;;;;;;;0.00;0.00;;;22.00;97.40;;;;;;5026169;28;20215;-81
2022/07/20 00:31:51;;;;;;;0.00;0.00;;;22.00;97.60;;;;;;5028505;28;20215;-80
2022/07/20 00:34:16;;;;;;;0.00;0.00;;;21.90;97.90;;;;;;5026693;28;20221;-80
2022/07/20 00:36:42;;;;;;;0.00;0.00;;;21.90;98.10;;;;;;5029629;28;20245;-81
2022/07/20 00:39:07;;;;;;;0.00;0.00;;;21.90;98.30;;;;;;5018482;28;20194;-81
2022/07/20 00:41:33;;;;;;;0.00;0.00;;;21.80;98.30;;;;;;5013126;28;20184;-82
2022/07/20 00:44:03;;;;;;;0.00;0.00;;;21.80;98.70;;;;;;5020614;28;20183;-80
2022/07/20 00:46:31;;;;;;;0.00;0.00;;;21.70;99.30;;;;;;5022416;28;20775;-81
2022/07/20 00:48:57;;;;;;;0.00;0.00;;;21.80;99.00;;;;;;5028289;28;20447;-80
2022/07/20 00:51:24;;;;;;;0.00;0.00;;;21.80;99.20;;;;;;4997649;28;21042;-81
2022/07/20 00:53:49;;;;;;;0.00;0.00;;;21.90;99.20;;;;;;4999199;28;20825;-80
2022/07/20 00:56:17;;;;;;;0.00;0.00;;;21.90;99.30;;;;;;5011277;28;20448;-81
2022/07/20 00:58:43;;;;;;;0.00;0.00;;;22.00;99.30;;;;;;5030948;28;20242;-81
2022/07/20 01:01:09;;;;;;;0.00;0.00;;;21.90;99.60;;;;;;5014462;28;20470;-81
2022/07/20 01:03:34;;;;;;;0.00;0.00;;;22.00;99.60;;;;;;5027594;28;20520;-81
2022/07/20 01:06:00;;;;;;;0.00;0.00;;;22.00;99.80;;;;;;5012333;28;20187;-80
2022/07/20 01:08:27;;;;;;;0.00;0.00;;;22.00;99.70;;;;;;5006006;28;20274;-80
2022/07/20 01:10:54;;;;;;;0.00;0.00;;;22.00;99.90;;;;;;5026705;28;20187;-81
2022/07/20 01:13:19;;;;;;;0.00;0.00;;;21.90;99.90;;;;;;5022473;28;21101;-81
2022/07/20 01:15:45;;;;;;;0.00;0.00;;;22.10;99.90;;;;;;5025324;28;20530;-80
2022/07/20 01:18:11;;;;;;;0.00;0.00;;;22.10;99.90;;;;;;5032774;28;20202;-81
2022/07/20 01:20:38;;;;;;;0.00;0.00;;;22.10;99.90;;;;;;5026973;28;20202;-81
2022/07/20 01:23:04;;;;;;;0.00;0.00;;;22.00;99.90;;;;;;5020412;28;20400;-81
2022/07/20 01:25:33;;;;;;;0.00;0.00;;;22.10;99.90;;;;;;5020381;28;20509;-81
2022/07/20 01:27:59;;;;;;;0.00;0.00;;;22.10;99.90;;;;;;5014881;28;20957;-80
2022/07/20 01:30:24;;;;;;;0.00;0.00;;;22.00;99.90;;;;;;5023351;28;20451;-81
2022/07/20 01:32:50;;;;;;;0.00;0.00;;;22.10;99.90;;;;;;5028073;28;20229;-81
2022/07/20 01:35:15;;;;;;;0.00;0.00;;;21.90;99.90;;;;;;5023632;28;20193;-81
2022/07/20 01:37:41;;;;;;;0.00;0.00;;;22.00;99.90;;;;;;5019073;28;20210;-81
2022/07/20 01:40:07;;;;;;;0.00;0.00;;;22.00;99.90;;;;;;5021803;28;20195;-82
2022/07/20 01:42:32;;;;;;;0.00;0.00;;;22.00;99.90;;;;;;5025336;28;20223;-82
2022/07/20 01:44:58;;;;;;;0.00;0.00;;;22.00;99.90;;;;;;5023466;28;20469;-81
2022/07/20 01:47:23;;;;;;;0.00;0.00;;;22.00;99.90;;;;;;5006293;28;20674;-82
2022/07/20 01:49:49;;;;;;;0.00;0.00;;;21.80;99.90;;;;;;5007489;28;20187;-81
2022/07/20 01:52:14;;;;;;;0.00;0.00;;;21.80;99.90;;;;;;5015195;28;20285;-81
2022/07/20 01:54:40;;;;;;;0.00;0.00;;;21.80;99.90;;;;;;5027836;28;20190;-82
2022/07/20 01:57:05;;;;;;;0.00;0.00;;;21.90;99.90;;;;;;5011708;28;20242;-81
2022/07/20 01:59:31;;;;;;;0.00;0.00;;;21.90;99.90;;;;;;5026979;28;20658;-81
2022/07/20 02:01:56;;;;;;;0.00;0.00;;;21.80;99.90;;;;;;5023888;28;20204;-81
2022/07/20 02:04:22;;;;;;;0.00;0.00;;;21.70;99.90;;;;;;5026306;28;20191;-81
2022/07/20 02:06:47;;;;;;;0.00;0.00;;;21.80;99.90;;;;;;5007091;28;20686;-81
2022/07/20 02:09:13;;;;;;;0.00;0.00;;;21.80;99.90;;;;;;5005544;28;20622;-82
2022/07/20 02:11:38;;;;;;;0.00;0.00;;;21.80;99.90;;;;;;5015358;28;20762;-81
2022/07/20 02:14:04;;;;;;;0.00;0.00;;;21.70;99.90;;;;;;5007808;28;20208;-81
2022/07/20 02:16:29;;;;;;;0.00;0.00;;;21.70;99.90;;;;;;5025134;28;20187;-82
2022/07/20 02:18:55;;;;;;;0.00;0.00;;;21.60;99.90;;;;;;5021741;28;20258;-81
2022/07/20 02:21:22;;;;;;;0.00;0.00;;;21.60;99.90;;;;;;5005608;28;20270;-81
2022/07/20 02:23:48;;;;;;;0.00;0.00;;;21.60;99.90;;;;;;5028319;28;20500;-82
2022/07/20 02:26:14;;;;;;;0.00;0.00;;;21.50;99.90;;;;;;5023139;28;20529;-82
2022/07/20 02:28:40;;;;;;;0.00;0.00;;;21.60;99.90;;;;;;5009583;28;20537;-81
2022/07/20 02:31:06;;;;;;;0.00;0.00;;;21.50;99.90;;;;;;5024943;28;20192;-81
2022/07/20 02:33:32;;;;;;;0.00;0.00;;;21.40;99.90;;;;;;5025830;28;20597;-82
2022/07/20 02:35:58;;;;;;;0.00;0.00;;;21.40;99.90;;;;;;5024392;28;20889;-81
2022/07/20 02:38:23;;;;;;;0.00;0.00;;;21.50;99.90;;;;;;5017655;28;20468;-81
2022/07/20 02:40:49;;;;;;;0.00;0.00;;;21.40;99.90;;;;;;5025194;28;20507;-82
2022/07/20 02:43:14;;;;;;;0.00;0.00;;;21.50;99.90;;;;;;5024585;28;20197;-81
2022/07/20 02:45:40;;;;;;;0.00;0.00;;;21.50;99.90;;;;;;5023646;28;20191;-81
2022/07/20 02:48:06;;;;;;;0.00;0.00;;;21.50;99.90;;;;;;5024717;28;20214;-81
2022/07/20 02:50:33;;;;;;;0.00;0.00;;;21.40;99.90;;;;;;5006204;28;20195;-81
2022/07/20 02:53:00;;;;;;;0.00;0.00;;;21.40;99.90;;;;;;5005624;28;20237;-81
2022/07/20 02:55:26;;;;;;;0.00;0.00;;;21.40;99.90;;;;;;5021768;28;20447;-81
2022/07/20 02:57:52;;;;;;;0.00;0.00;;;21.40;99.90;;;;;;5029988;28;20489;-81
2022/07/20 03:00:18;;;;;;;0.00;0.00;;;21.40;99.90;;;;;;5023807;28;20662;-81
2022/07/20 03:02:43;;;;;;;0.00;0.00;;;21.30;99.90;;;;;;5028188;28;20442;-81
2022/07/20 03:05:09;;;;;;;0.00;0.00;;;21.30;99.90;;;;;;5031035;28;20760;-81
2022/07/20 03:07:35;;;;;;;0.00;0.00;;;21.30;99.90;;;;;;5001750;28;20587;-80
2022/07/20 03:10:00;;;;;;;0.00;0.00;;;21.30;99.90;;;;;;5009217;28;20635;-81
2022/07/20 03:12:26;;;;;;;0.00;0.00;;;21.20;99.90;;;;;;5027909;28;20233;-81
2022/07/20 03:14:51;;;;;;;0.00;0.00;;;21.10;99.90;;;;;;5011388;28;20180;-81
2022/07/20 03:17:17;;;;;;;0.00;0.00;;;21.20;99.90;;;;;;5027983;28;20191;-81
2022/07/20 03:19:43;;;;;;;0.00;0.00;;;21.20;99.90;;;;;;5026959;28;20642;-82
2022/07/20 03:22:09;;;;;;;0.00;0.00;;;21.10;99.90;;;;;;5027378;28;20183;-81
2022/07/20 03:24:34;;;;;;;0.00;0.00;;;21.10;99.90;;;;;;5012299;28;20438;-81
2022/07/20 03:27:00;;;;;;;0.00;0.00;;;21.00;99.90;;;;;;5025979;28;20192;-81
2022/07/20 03:29:25;;;;;;;0.00;0.00;;;21.10;99.90;;;;;;5026990;28;20646;-82
2022/07/20 03:31:51;;;;;;;0.00;0.00;;;21.10;99.90;;;;;;5027107;28;20261;-82
2022/07/20 03:34:16;;;;;;;0.00;0.00;;;21.10;99.90;;;;;;5023508;28;20188;-82
2022/07/20 03:36:42;;;;;;;0.00;0.00;;;21.10;99.90;;;;;;5010794;28;20317;-82
2022/07/20 03:39:07;;;;;;;0.00;0.00;;;21.10;99.90;;;;;;5022896;28;20198;-82
2022/07/20 03:41:33;;;;;;;0.00;0.00;;;21.00;99.90;;;;;;5024622;28;20674;-81
2022/07/20 03:43:58;;;;;;;0.00;0.00;;;21.10;99.90;;;;;;5024880;28;20206;-81
2022/07/20 03:46:24;;;;;;;0.00;0.00;;;21.10;99.90;;;;;;5009593;28;20195;-81
2022/07/20 03:48:49;;;;;;;0.00;0.00;;;21.10;99.90;;;;;;5025700;28;20184;-81
2022/07/20 03:51:15;;;;;;;0.00;0.00;;;21.10;99.90;;;;;;5025046;28;20188;-81
2022/07/20 03:53:40;;;;;;;0.00;0.00;;;21.10;99.90;;;;;;5027189;28;20611;-82
2022/07/20 03:56:06;;;;;;;0.00;0.00;;;21.10;99.90;;;;;;5021476;28;20191;-82
2022/07/20 03:58:31;;;;;;;0.00;0.00;;;21.20;99.90;;;;;;5019317;28;20235;-82
2022/07/20 04:00:57;;;;;;;0.00;0.00;;;21.20;99.90;;;;;;5016496;28;20211;-82
2022/07/20 04:03:22;;;;;;;0.00;0.00;;;21.10;99.90;;;;;;5025470;28;20544;-81
2022/07/20 04:05:48;;;;;;;0.00;0.00;;;21.10;99.90;;;;;;5011854;28;20195;-81
2022/07/20 04:08:13;;;;;;;0.00;0.00;;;21.10;99.90;;;;;;5023431;28;20201;-82
2022/07/20 04:10:39;;;;;;;0.00;0.00;;;21.20;99.90;;;;;;5022338;28;20191;-82
2022/07/20 04:13:05;;;;;;;0.00;0.00;;;21.30;99.90;;;;;;5022477;28;20227;-81
2022/07/20 04:15:30;;;;;;;0.00;0.00;;;21.20;99.90;;;;;;4994793;28;20195;-82
2022/07/20 04:17:56;;;;;;;0.00;0.00;;;21.30;99.90;;;;;;5001739;28;20319;-81
2022/07/20 04:20:22;;;;;;;0.00;0.00;;;21.20;99.90;;;;;;5007671;28;20187;-82
2022/07/20 04:22:47;;;;;;;0.00;0.00;;;21.30;99.90;;;;;;5026189;28;20202;-82
2022/07/20 04:25:13;;;;;;;0.00;0.00;;;21.30;99.90;;;;;;5031549;28;20199;-81
2022/07/20 04:27:39;;;;;;;0.00;0.00;;;21.30;99.90;;;;;;5027833;28;20231;-82
2022/07/20 04:30:06;;;;;;;0.00;0.00;;;21.40;99.90;;;;;;5020251;28;20656;-80
2022/07/20 04:32:32;;;;;;;0.00;0.00;;;21.40;99.90;;;;;;5027852;28;20298;-81
2022/07/20 04:34:57;;;;;;;0.00;0.00;;;21.40;99.90;;;;;;5022621;28;21186;-81
2022/07/20 04:37:23;;;;;;;0.00;0.00;;;21.40;99.90;;;;;;5028248;28;20718;-80
2022/07/20 04:39:49;;;;;;;0.00;0.00;;;21.50;99.90;;;;;;5019368;28;20195;-82
2022/07/20 04:42:14;;;;;;;0.00;0.00;;;21.50;99.90;;;;;;5026552;28;20206;-82
2022/07/20 04:44:40;;;;;;;0.00;0.00;;;21.50;99.90;;;;;;5010351;28;20241;-81
2022/07/20 04:47:05;;;;;;;0.00;0.00;;;21.60;99.90;;;;;;5010744;28;20199;-81
2022/07/20 04:49:31;;;;;;;0.00;0.00;;;21.60;99.90;;;;;;5029137;28;20662;-81
2022/07/20 04:51:56;;;;;;;0.00;0.00;;;21.60;99.90;;;;;;5020491;28;20208;-81
2022/07/20 04:54:22;;;;;;;0.00;0.00;;;21.70;99.90;;;;;;5022971;28;20222;-81
2022/07/20 04:56:48;;;;;;;0.00;0.00;;;21.80;99.90;;;;;;5026342;28;20186;-79
2022/07/20 04:59:14;;;;;;;0.00;0.00;;;21.80;99.90;;;;;;5020000;28;20213;-82
2022/07/20 05:01:40;;;;;;;0.00;0.00;;;21.80;99.90;;;;;;5022052;28;20806;-81
2022/07/20 05:04:06;;;;;;;0.00;0.00;;;21.90;99.90;;;;;;5024062;28;20201;-80
2022/07/20 05:06:32;;;;;;;0.00;0.00;;;21.90;99.90;;;;;;5005565;28;20188;-82
2022/07/20 05:08:58;;;;;;;0.00;0.00;;;22.00;99.90;;;;;;5024786;28;20529;-81
2022/07/20 05:11:26;;;;;;;0.00;0.00;;;22.00;99.90;;;;;;5006582;28;20548;-80
2022/07/20 05:13:52;;;;;;;0.00;0.00;;;22.10;99.90;;;;;;5013387;28;20477;-81
2022/07/20 05:16:18;;;;;;;0.00;0.00;;;22.10;99.90;;;;;;5031176;28;20442;-81
2022/07/20 05:18:43;;;;;;;0.00;0.00;;;22.20;99.90;;;;;;5029808;28;21307;-81
2022/07/20 05:21:09;;;;;;;0.00;0.00;;;22.30;99.90;;;;;;5026592;28;20218;-81
2022/07/20 05:23:34;;;;;;;0.00;0.00;;;22.30;99.90;;;;;;5030227;28;20191;-81
2022/07/20 05:26:01;;;;;;;0.00;0.00;;;22.40;99.90;;;;;;5030081;28;20555;-80
2022/07/20 05:28:26;;;;;;;0.00;0.00;;;22.50;99.90;;;;;;5024945;28;20191;-81
2022/07/20 05:30:52;;;;;;;0.00;0.00;;;22.50;99.90;;;;;;5028503;28;20605;-80
2022/07/20 05:33:18;;;;;;;0.00;0.00;;;22.60;99.90;;;;;;5029341;28;20255;-81
2022/07/20 05:35:44;;;;;;;0.00;0.00;;;22.70;99.90;;;;;;5025002;28;20669;-82
2022/07/20 05:38:10;;;;;;;0.00;0.00;;;22.70;99.90;;;;;;5018796;28;20458;-81
2022/07/20 05:40:36;;;;;;;0.00;0.00;;;22.80;99.90;;;;;;5006087;28;20504;-82
2022/07/20 05:43:02;;;;;;;0.00;0.00;;;22.90;99.90;;;;;;5006560;28;20817;-82
2022/07/20 05:45:27;;;;;;;0.00;0.00;;;23.00;99.90;;;;;;5026395;28;20199;-81
2022/07/20 05:47:53;;;;;;;0.00;0.00;;;23.00;99.90;;;;;;5010866;28;20187;-82
2022/07/20 05:50:19;;;;;;;0.00;0.00;;;23.10;99.90;;;;;;5022690;28;20243;-81
2022/07/20 05:52:44;;;;;;;0.00;0.00;;;23.20;99.90;;;;;;5018137;28;20277;-81
2022/07/20 05:55:10;;;;;;;0.00;0.00;;;23.20;99.90;;;;;;5014387;28;20238;-82
2022/07/20 05:57:35;;;;;;;0.00;0.00;;;23.20;99.90;;;;;;5009449;28;20716;-82
2022/07/20 06:00:01;;;;;;;0.00;0.00;;;23.30;99.90;;;;;;5027768;28;20199;-81
2022/07/20 06:02:26;;;;;;;0.00;0.00;;;23.30;99.90;;;;;;5026141;28;20184;-82
2022/07/20 06:04:52;;;;;;;0.00;0.00;;;23.40;99.90;;;;;;5012398;28;20191;-82
2022/07/20 06:07:17;;;;;;;0.00;0.00;;;23.50;99.90;;;;;;5028148;28;20195;-81
2022/07/20 06:09:43;;;;;;;0.00;0.00;;;23.50;99.90;;;;;;4999927;28;20196;-81
2022/07/20 06:12:08;;;;;;;0.00;0.00;;;23.60;99.90;;;;;;5006986;28;20234;-82
2022/07/20 06:14:34;;;;;;;0.00;0.00;;;23.60;99.90;;;;;;5028171;28;20240;-81
2022/07/20 06:16:59;;;;;;;0.00;0.00;;;23.70;99.90;;;;;;5023119;28;20187;-81
2022/07/20 06:19:25;;;;;;;0.00;0.00;;;23.80;99.90;;;;;;5023174;28;20206;-81
2022/07/20 06:21:51;;;;;;;0.00;0.00;;;23.90;99.90;;;;;;5024914;28;20755;-81
2022/07/20 06:24:16;;;;;;;0.00;0.00;;;23.90;99.90;;;;;;5023701;28;20210;-82
2022/07/20 06:26:42;;;;;;;0.00;0.00;;;24.00;99.90;;;;;;5025157;28;20176;-81
2022/07/20 06:29:07;;;;;;;0.00;0.00;;;24.10;99.90;;;;;;5025333;28;21060;-81
2022/07/20 06:31:33;;;;;;;0.00;0.00;;;24.20;99.90;;;;;;5008186;28;20635;-80
2022/07/20 06:33:58;;;;;;;0.00;0.00;;;24.30;99.90;;;;;;5028723;28;20305;-80
2022/07/20 06:36:24;;;;;;;0.00;0.00;;;24.40;99.90;;;;;;5023136;28;20192;-80
2022/07/20 06:38:49;;;;;;;0.00;0.00;;;24.50;99.90;;;;;;5005848;28;20254;-80
2022/07/20 06:41:15;;;;;;;0.00;0.00;;;24.50;99.90;;;;;;5006399;28;20222;-80
2022/07/20 06:43:40;;;;;;;0.00;0.00;;;24.60;99.90;;;;;;5010100;28;20207;-80
2022/07/20 06:46:06;;;;;;;0.00;0.00;;;24.70;99.90;;;;;;5015929;28;20250;-80
2022/07/20 06:48:34;;;;;;;0.00;0.00;;;24.70;99.90;;;;;;4994731;28;20279;-80
2022/07/20 06:50:59;;;;;;;0.00;0.00;;;24.80;99.90;;;;;;5018426;28;20251;-80
2022/07/20 06:53:25;;;;;;;0.00;0.00;;;24.80;99.90;;;;;;5025706;28;20482;-80
2022/07/20 06:55:50;;;;;;;0.00;0.00;;;24.90;99.90;;;;;;5025274;28;20639;-81
2022/07/20 06:58:16;;;;;;;0.00;0.00;;;25.00;99.90;;;;;;5022132;28;20236;-80
2022/07/20 07:00:41;;;;;;;0.00;0.00;;;25.00;99.90;;;;;;5024454;28;20227;-81
2022/07/20 07:03:06;;;;;;;0.00;0.00;;;25.10;99.90;;;;;;5007673;28;20193;-82
2022/07/20 07:05:32;;;;;;;0.00;0.00;;;25.10;99.90;;;;;;5001749;28;20595;-80
2022/07/20 07:07:58;;;;;;;0.00;0.00;;;25.30;99.90;;;;;;5016451;28;20191;-81
2022/07/20 07:10:25;;;;;;;0.00;0.00;;;25.40;99.90;;;;;;5028526;28;20211;-82
2022/07/20 07:12:51;;;;;;;0.00;0.00;;;25.40;99.90;;;;;;5012741;28;20766;-81
2022/07/20 07:15:17;;;;;;;0.00;0.00;;;25.50;99.90;;;;;;5028405;28;20442;-81
2022/07/20 07:17:43;;;;;;;0.00;0.00;;;25.60;99.90;;;;;;5019864;28;20201;-80
2022/07/20 07:20:09;;;;;;;0.00;0.00;;;25.70;99.90;;;;;;5009045;28;20819;-81
2022/07/20 07:22:35;;;;;;;0.00;0.00;;;25.80;99.90;;;;;;5023484;28;20187;-81
2022/07/20 07:25:00;;;;;;;0.00;0.00;;;25.80;99.90;;;;;;5023990;28;20441;-81
2022/07/20 07:27:26;;;;;;;0.00;0.00;;;25.90;99.90;;;;;;5029090;28;20187;-81
2022/07/20 07:29:51;;;;;;;0.00;0.00;;;26.00;99.90;;;;;;5002280;28;20935;-81
2022/07/20 07:32:17;;;;;;;0.00;0.00;;;26.20;99.90;;;;;;5024201;28;20218;-81
2022/07/20 07:34:42;;;;;;;0.00;0.00;;;26.40;99.90;;;;;;5027582;28;20756;-80
2022/07/20 07:37:08;;;;;;;0.00;0.00;;;26.40;99.90;;;;;;4994758;28;20222;-81
2022/07/20 07:39:34;;;;;;;0.00;0.00;;;26.50;99.90;;;;;;5027818;28;20279;-81
2022/07/20 07:42:00;;;;;;;0.00;0.00;;;26.60;99.90;;;;;;5029393;28;20317;-82
2022/07/20 07:44:25;;;;;;;0.00;0.00;;;26.70;99.90;;;;;;5027147;28;20194;-81
2022/07/20 07:46:51;;;;;;;0.00;0.00;;;26.90;99.90;;;;;;5028951;28;20725;-81
2022/07/20 07:49:17;;;;;;;0.00;0.00;;;26.90;99.90;;;;;;5025466;28;20188;-82
2022/07/20 07:51:42;;;;;;;0.00;0.00;;;27.00;99.90;;;;;;5008481;28;20226;-80
2022/07/20 07:54:08;;;;;;;0.00;0.00;;;27.10;99.90;;;;;;5026449;28;20195;-81
2022/07/20 07:56:34;;;;;;;0.00;0.00;;;27.10;99.90;;;;;;5008123;28;20184;-81
2022/07/20 07:59:00;;;;;;;0.00;0.00;;;27.20;99.90;;;;;;5009459;28;20250;-81
2022/07/20 08:01:25;;;;;;;0.00;0.00;;;27.30;99.90;;;;;;5026717;28;20516;-81
2022/07/20 08:03:51;;;;;;;0.00;0.00;;;27.40;99.90;;;;;;5007809;28;20198;-82
2022/07/20 08:06:16;;;;;;;0.00;0.00;;;27.40;99.90;;;;;;5019925;28;20277;-82
2022/07/20 08:08:42;;;;;;;0.00;0.00;;;27.60;99.90;;;;;;5017645;28;20223;-80
2022/07/20 08:11:07;;;;;;;0.00;0.00;;;27.70;99.90;;;;;;5004252;28;20558;-80
2022/07/20 08:13:33;;;;;;;0.00;0.00;;;27.80;99.90;;;;;;5028220;28;20257;-81
2022/07/20 08:15:58;;;;;;;0.00;0.00;;;28.00;99.90;;;;;;5019476;28;20196;-81
2022/07/20 08:18:24;;;;;;;0.00;0.00;;;28.00;99.90;;;;;;5029379;28;20277;-81
2022/07/20 08:20:50;;;;;;;0.00;0.00;;;28.20;99.90;;;;;;5034187;28;20176;-82
2022/07/20 08:23:16;;;;;;;0.00;0.00;;;28.60;99.90;;;;;;5015049;28;20219;-81
2022/07/20 08:25:41;;;;;;;0.00;0.00;;;28.60;99.90;;;;;;5011118;28;20474;-79
2022/07/20 08:28:21;;;;;;;0.00;0.00;;;28.80;99.90;;;;;;5006048;28;20196;-78
2022/07/20 08:30:49;;;;;;;0.00;0.00;;;29.00;99.90;;;;;;4998002;28;20222;-78
2022/07/20 08:33:15;;;;;;;0.00;0.00;;;29.10;99.90;;;;;;5024548;28;20495;-78
2022/07/20 08:35:41;;;;;;;0.00;0.00;;;29.20;99.90;;;;;;5006444;28;20442;-79
2022/07/20 08:38:07;;;;;;;0.00;0.00;;;29.40;99.90;;;;;;5011542;28;20576;-79
2022/07/20 08:40:34;;;;;;;0.00;0.00;;;29.40;99.40;;;;;;5009405;28;21095;-79
2022/07/20 08:43:00;;;;;;;0.00;0.00;;;29.60;99.90;;;;;;5009260;28;20803;-78
2022/07/20 08:45:26;;;;;;;0.00;0.00;;;29.60;99.70;;;;;;5029067;28;20438;-79
2022/07/20 08:47:52;;;;;;;0.00;0.00;;;29.70;99.80;;;;;;5012814;28;20802;-78
2022/07/20 08:50:22;;;;;;;0.00;0.00;;;29.60;99.50;;;;;;5023499;28;20441;-79
2022/07/20 08:52:48;;;;;;;0.00;0.00;;;29.90;99.00;;;;;;5009418;28;20245;-78
2022/07/20 08:55:14;;;;;;;0.00;0.00;;;30.10;98.90;;;;;;5031221;28;20517;-79
2022/07/20 08:57:40;;;;;;;0.00;0.00;;;30.40;99.80;;;;;;5012439;28;20493;-79
2022/07/20 09:00:06;;;;;;;0.00;0.00;;;30.20;97.60;;;;;;5008697;28;20450;-79
2022/07/20 09:02:53;;;;;;;0.00;0.00;;;30.20;98.50;;;;;;5010878;28;20186;-79
2022/07/20 09:05:20;;;;;;;0.00;0.00;;;30.60;99.40;;;;;;5016654;28;21407;-79
2022/07/20 09:07:51;;;;;;;0.00;0.00;;;30.90;98.40;;;;;;5023217;28;20441;-79
2022/07/20 09:10:23;;;;;;;0.00;0.00;;;30.90;99.30;;;;;;5030680;28;20438;-80
2022/07/20 09:13:03;;;;;;;0.00;0.00;;;31.00;96.60;;;;;;5009071;28;20954;-78
2022/07/20 09:15:42;;;;;;;0.00;0.00;;;31.10;97.00;;;;;;5030348;28;20508;-79
2022/07/20 09:18:21;;;;;;;0.00;0.00;;;31.40;96.60;;;;;;5011444;28;21064;-78
2022/07/20 09:20:52;;;;;;;0.00;0.00;;;31.40;97.10;;;;;;5029419;28;20438;-79
2022/07/20 09:23:33;;;;;;;0.00;0.00;;;31.50;96.20;;;;;;5027538;28;20525;-78
2022/07/20 09:26:02;;;;;;;0.00;0.00;;;31.80;97.30;;;;;;5024636;28;20440;-78
2022/07/20 09:28:52;;;;;;;0.00;0.00;;;31.80;95.50;;;;;;5012135;28;20446;-79
2022/07/20 09:31:30;;;;;;;0.00;0.00;;;31.90;95.70;;;;;;5016723;28;20906;-79
2022/07/20 09:34:04;;;;;;;0.00;0.00;;;32.20;96.50;;;;;;5000535;28;20506;-78
2022/07/20 09:36:36;;;;;;;0.00;0.00;;;32.30;94.70;;;;;;4999563;28;20469;-79
2022/07/20 09:39:10;;;;;;;0.00;0.00;;;32.40;94.10;;;;;;5004713;28;20442;-78
2022/07/20 09:41:39;;;;;;;0.00;0.00;;;32.60;93.90;;;;;;5005286;28;20469;-79
2022/07/20 09:44:05;;;;;;;0.00;0.00;;;32.50;93.40;;;;;;5024517;28;20458;-80
2022/07/20 09:46:34;;;;;;;0.00;0.00;;;32.70;94.30;;;;;;5005438;28;20972;-79
2022/07/20 09:49:06;;;;;;;0.00;0.00;;;33.00;93.40;;;;;;5023751;28;20500;-78
2022/07/20 09:51:32;;;;;;;0.00;0.00;;;33.20;94.20;;;;;;5021484;28;20458;-79
2022/07/20 09:54:06;;;;;;;0.00;0.00;;;33.20;93.30;;;;;;5021034;28;20494;-79
2022/07/20 09:56:33;;;;;;;0.00;0.00;;;33.20;93.40;;;;;;5026738;28;20190;-79
2022/07/20 09:59:02;;;;;;;0.00;0.00;;;33.20;92.00;;;;;;5009915;28;20581;-79
2022/07/20 10:01:29;;;;;;;0.00;0.00;;;33.50;92.40;;;;;;5005562;28;20450;-79
2022/07/20 10:03:58;;;;;;;0.00;0.00;;;33.50;92.70;;;;;;5028896;28;20446;-80
2022/07/20 10:06:25;;;;;;;0.00;0.00;;;33.30;91.80;;;;;;5025821;28;20442;-79
2022/07/20 10:08:51;;;;;;;0.00;0.00;;;33.40;92.20;;;;;;5021770;28;20451;-78
2022/07/20 10:11:18;;;;;;;0.00;0.00;;;33.50;92.50;;;;;;5027135;28;20542;-79
2022/07/20 10:13:45;;;;;;;0.00;0.00;;;33.90;92.80;;;;;;5008608;28;20490;-79
2022/07/20 10:16:32;;;;;;;0.00;0.00;;;34.30;92.60;;;;;;5006703;28;20452;-77
2022/07/20 10:18:58;;;;;;;0.00;0.00;;;34.50;91.40;;;;;;5006578;28;20450;-78
2022/07/20 10:21:45;;;;;;;0.00;0.00;;;34.40;91.80;;;;;;5015391;28;20553;-78
2022/07/20 10:24:30;;;;;;;0.00;0.00;;;34.80;92.10;;;;;;5024252;28;20524;-76
2022/07/20 10:27:08;;;;;;;0.00;0.00;;;34.90;90.60;;;;;;5012451;28;20557;-76
2022/07/20 10:29:42;;;;;;;0.00;0.00;;;35.30;90.40;;;;;;5010796;28;20461;-76
2022/07/20 10:32:22;;;;;;;0.00;0.00;;;35.50;90.60;;;;;;5030660;28;20461;-77
2022/07/20 10:34:50;;;;;;;0.00;0.00;;;35.40;88.50;;;;;;5020839;28;20488;-75
2022/07/20 10:37:39;;;;;;;0.00;0.00;;;35.60;88.70;;;;;;5026347;28;20446;-76
2022/07/20 10:40:16;;;;;;;0.00;0.00;;;35.60;83.60;;;;;;4994419;28;20831;-76
2022/07/20 10:43:13;;;;;;;0.00;0.00;;;35.60;82.60;;;;;;5027777;28;20444;-75
2022/07/20 10:45:38;;;;;;;0.00;0.00;;;35.80;82.60;;;;;;5020230;28;20442;-76
2022/07/20 10:48:12;;;;;;;0.00;0.00;;;36.20;86.60;;;;;;5029173;28;20450;-77
2022/07/20 10:50:40;;;;;;;0.00;0.00;;;36.30;84.30;;;;;;5026210;28;20198;-76
2022/07/20 10:53:14;;;;;;;0.00;0.00;;;36.20;83.40;;;;;;5023971;28;20543;-75
2022/07/20 10:55:55;;;;;;;0.00;0.00;;;36.70;82.60;;;;;;5026972;28;20457;-75
2022/07/20 10:58:23;;;;;;;0.00;0.00;;;37.30;84.50;;;;;;5018975;28;20502;-74
2022/07/20 11:00:54;;;;;;;0.00;0.00;;;37.20;80.70;;;;;;5012788;28;20486;-75
2022/07/20 11:03:29;;;;;;;0.00;0.00;;;37.30;81.90;;;;;;5010539;28;20505;-76
2022/07/20 11:06:02;;;;;;;0.00;0.00;;;36.90;80.60;;;;;;4986392;28;20446;-76
2022/07/20 11:08:28;;;;;;;0.00;0.00;;;37.40;83.00;;;;;;4980902;28;20576;-75
2022/07/20 11:10:55;;;;;;;0.00;0.00;;;37.40;82.30;;;;;;4987512;28;20542;-75
2022/07/20 11:13:21;;;;;;;0.00;0.00;;;37.30;79.20;;;;;;5000990;28;20220;-76
2022/07/20 11:15:52;;;;;;;0.00;0.00;;;37.30;78.10;;;;;;4988306;28;20583;-77
2022/07/20 11:18:21;;;;;;;0.00;0.00;;;37.60;79.40;;;;;;5004322;28;20267;-76
2022/07/20 11:20:50;;;;;;;0.00;0.00;;;38.00;75.70;;;;;;5003469;28;20446;-76
2022/07/20 11:23:17;;;;;;;0.00;0.00;;;38.30;75.20;;;;;;5007860;28;20558;-76
2022/07/20 11:25:55;;;;;;;0.00;0.00;;;38.70;76.10;;;;;;4986827;28;20435;-76
2022/07/20 11:28:30;;;;;;;0.00;0.00;;;38.70;74.00;;;;;;4995155;28;20455;-76
2022/07/20 11:30:57;;;;;;;0.00;0.00;;;39.00;77.70;;;;;;5004573;28;20592;-76
2022/07/20 11:33:24;;;;;;;0.00;0.00;;;39.50;72.50;;;;;;4997459;28;20481;-75
2022/07/20 11:36:14;;;;;;;0.00;0.00;;;39.60;73.20;;;;;;5005117;28;20457;-76
2022/07/20 11:38:50;;;;;;;0.00;0.00;;;39.80;71.20;;;;;;4992296;28;20836;-76
2022/07/20 11:41:18;;;;;;;0.00;0.00;;;39.10;67.60;;;;;;4999696;28;20935;-76
2022/07/20 11:43:44;;;;;;;0.00;0.00;;;39.40;73.30;;;;;;4985603;28;21264;-75
2022/07/20 11:46:24;;;;;;;0.00;0.00;;;39.60;68.60;;;;;;5031247;28;20465;-75
2022/07/20 11:48:56;;;;;;;0.00;0.00;;;39.80;68.70;;;;;;5005227;28;20199;-76
2022/07/20 11:51:21;;;;;;;0.00;0.00;;;40.20;67.30;;;;;;5027698;28;20418;-77
2022/07/20 11:53:47;;;;;;;0.00;0.00;;;40.50;65.80;;;;;;4994101;28;20497;-77
2022/07/20 11:56:15;;;;;;;0.00;0.00;;;40.20;64.50;;;;;;5005660;28;20649;-77
2022/07/20 11:58:43;;;;;;;0.00;0.00;;;40.20;65.80;;;;;;5013762;28;20242;-77
2022/07/20 12:01:11;;;;;;;0.00;0.00;;;40.00;65.60;;;;;;5006577;28;20446;-76
2022/07/20 12:03:42;;;;;;;0.00;0.00;;;40.10;63.50;;;;;;5004742;28;20855;-76
2022/07/20 12:06:13;;;;;;;0.00;0.00;;;40.20;63.80;;;;;;5024038;28;20945;-75
2022/07/20 12:08:41;;;;;;;0.00;0.00;;;39.80;65.20;;;;;;5030060;28;20451;-76
2022/07/20 12:11:09;;;;;;;0.00;0.00;;;40.60;63.50;;;;;;5029796;28;20442;-75
2022/07/20 12:13:46;;;;;;;0.00;0.00;;;40.40;62.70;;;;;;5011306;28;20486;-75
2022/07/20 12:16:11;;;;;;;0.00;0.00;;;40.70;61.70;;;;;;5018879;28;20445;-75
2022/07/20 12:18:50;;;;;;;0.00;0.00;;;40.60;61.70;;;;;;5020501;28;20859;-75
2022/07/20 12:21:24;;;;;;;0.00;0.00;;;40.50;63.20;;;;;;5030806;28;20186;-75
2022/07/20 12:23:53;;;;;;;0.00;0.00;;;41.00;63.90;;;;;;5028353;28;20485;-74
2022/07/20 12:26:25;;;;;;;0.00;0.00;;;40.70;61.70;;;;;;5022089;28;20460;-75
2022/07/20 12:28:51;;;;;;;0.00;0.00;;;41.20;63.80;;;;;;5028609;28;20445;-75
2022/07/20 12:31:19;;;;;;;0.00;0.00;;;41.30;60.00;;;;;;5017348;28;20450;-75
2022/07/20 12:34:09;;;;;;;0.00;0.00;;;41.30;60.80;;;;;;5025571;28;20496;-76
2022/07/20 12:36:48;;;;;;;0.00;0.00;;;41.50;60.20;;;;;;5022941;28;20529;-75
2022/07/20 12:39:34;;;;;;;0.00;0.00;;;41.20;59.70;;;;;;5007201;28;20450;-75
2022/07/20 12:42:11;;;;;;;0.00;0.00;;;41.00;57.00;;;;;;5029756;28;20461;-74
2022/07/20 12:44:37;;;;;;;0.00;0.00;;;40.80;56.30;;;;;;5003933;28;20447;-74
2022/07/20 12:47:02;;;;;;;0.00;0.00;;;40.30;60.20;;;;;;5014919;28;20870;-74
2022/07/20 12:49:29;;;;;;;0.00;0.00;;;40.20;57.70;;;;;;5005488;28;20187;-75
2022/07/20 12:51:56;;;;;;;0.00;0.00;;;40.40;57.70;;;;;;5029130;28;20274;-74
2022/07/20 12:54:23;;;;;;;0.00;0.00;;;40.60;56.30;;;;;;5016774;28;20469;-74